createdAt,value
2018-03-26T00:01:00.336Z,40.17
2018-03-26T00:03:26.071Z,41.33
2018-03-26T00:05:51.806Z,44.43
2018-03-26T00:08:17.711Z,45.67
2018-03-26T00:10:43.472Z,45.07
2018-03-26T00:13:09.459Z,47.90
2018-03-26T00:15:35.566Z,47.10
2018-03-26T00:18:01.338Z,46.63
2018-03-26T00:20:27.099Z,47.60
2018-03-26T00:22:52.837Z,49.00
2018-03-26T00:25:18.861Z,50.00
2018-03-26T00:27:44.654Z,53.67
2018-03-26T00:30:10.737Z,53.70
2018-03-26T00:32:36.509Z,52.92
2018-03-26T00:35:02.553Z,50.30
2018-03-26T00:37:28.522Z,59.90
2018-03-26T00:39:54.278Z,59.17
2018-03-26T00:42:20.021Z,56.40
2018-03-26T00:44:45.750Z,56.23
2018-03-26T00:47:11.478Z,54.07
2018-03-26T00:49:37.628Z,49.20
2018-03-26T00:52:03.584Z,41.05
2018-03-26T00:54:29.552Z,35.63
2018-03-26T00:56:55.485Z,35.30
2018-03-26T00:59:21.213Z,32.93
2018-03-26T01:01:46.945Z,31.13
2018-03-26T01:04:12.684Z,31.27
2018-03-26T01:06:38.418Z,29.83
2018-03-26T01:09:04.413Z,25.93
2018-03-26T01:11:30.149Z,26.85
2018-03-26T01:13:55.894Z,25.13
2018-03-26T01:16:21.614Z,28.23
2018-03-26T01:18:47.400Z,32.53
2018-03-26T01:21:13.437Z,27.73
2018-03-26T01:23:39.435Z,29.35
2018-03-26T01:26:05.437Z,30.73
2018-03-26T01:28:31.198Z,30.80
2018-03-26T01:30:56.930Z,29.77
2018-03-26T01:33:23.024Z,31.67
2018-03-26T01:35:48.757Z,29.95
2018-03-26T01:38:14.501Z,32.13
2018-03-26T01:40:40.222Z,28.73
2018-03-26T01:43:05.941Z,27.13
2018-03-26T01:45:31.692Z,29.57
2018-03-26T01:47:57.888Z,30.33
2018-03-26T01:50:23.662Z,29.67
2018-03-26T01:52:49.961Z,31.93
2018-03-26T01:55:15.703Z,29.15
2018-03-26T01:57:41.433Z,27.93
2018-03-26T02:00:07.922Z,31.90
2018-03-26T02:02:33.670Z,31.02
2018-03-26T02:04:59.401Z,30.03
2018-03-26T02:07:25.326Z,29.13
2018-03-26T02:09:51.375Z,28.50
2018-03-26T02:12:17.225Z,28.55
2018-03-26T02:14:42.999Z,30.03
2018-03-26T02:17:08.735Z,28.13
2018-03-26T02:19:34.737Z,28.97
2018-03-26T02:22:00.457Z,28.02
2018-03-26T02:24:26.717Z,24.77
2018-03-26T02:26:52.581Z,25.20
2018-03-26T02:29:18.306Z,24.53
2018-03-26T02:31:45.399Z,23.77
2018-03-26T02:34:12.238Z,21.37
2018-03-26T02:36:39.074Z,19.95
2018-03-26T02:39:04.826Z,20.05
2018-03-26T02:41:31.483Z,24.37
2018-03-26T02:43:57.274Z,24.92
2018-03-26T02:46:24.438Z,23.17
2018-03-26T02:48:50.186Z,21.92
2018-03-26T02:51:16.206Z,21.33
2018-03-26T02:53:41.946Z,19.05
2018-03-26T02:56:07.697Z,20.77
2018-03-26T02:58:34.832Z,20.33
2018-03-26T03:01:00.575Z,19.02
2018-03-26T03:03:26.297Z,21.70
2018-03-26T03:05:52.476Z,23.30
2018-03-26T03:08:18.207Z,22.55
2018-03-26T03:10:44.546Z,23.00
2018-03-26T03:13:10.562Z,24.35
2018-03-26T03:15:36.336Z,24.20
2018-03-26T03:18:02.077Z,25.80
2018-03-26T03:20:27.812Z,23.37
2018-03-26T03:22:53.537Z,21.50
2018-03-26T03:25:19.574Z,23.40
2018-03-26T03:27:45.559Z,18.80
2018-03-26T03:30:11.599Z,18.65
2018-03-26T03:32:37.613Z,19.15
2018-03-26T03:35:03.353Z,18.58
2018-03-26T03:37:29.090Z,18.37
2018-03-26T03:39:54.823Z,19.70
2018-03-26T03:42:20.575Z,19.90
2018-03-26T03:44:46.315Z,17.57
2018-03-26T03:47:12.056Z,16.87
2018-03-26T03:49:37.801Z,17.17
2018-03-26T03:52:03.551Z,18.80
2018-03-26T03:54:29.294Z,17.03
2018-03-26T03:56:55.038Z,18.80
2018-03-26T03:59:20.777Z,17.60
2018-03-26T04:01:46.517Z,20.03
2018-03-26T04:04:12.241Z,20.17
2018-03-26T04:06:45.049Z,13.13
2018-03-26T04:09:10.785Z,9.73
2018-03-26T04:11:36.517Z,11.73
2018-03-26T04:14:02.254Z,10.13
2018-03-26T04:16:27.989Z,9.60
2018-03-26T04:18:53.717Z,10.33
2018-03-26T04:21:19.475Z,8.97
2018-03-26T04:23:45.213Z,11.40
2018-03-26T04:26:10.964Z,10.10
2018-03-26T04:28:36.702Z,8.83
2018-03-26T04:31:02.422Z,10.33
2018-03-26T04:33:28.162Z,8.57
2018-03-26T04:35:53.894Z,9.03
2018-03-26T04:38:19.634Z,8.77
2018-03-26T04:40:45.358Z,8.67
2018-03-26T04:43:11.098Z,9.33
2018-03-26T04:45:36.825Z,9.97
2018-03-26T04:48:02.633Z,8.90
2018-03-26T04:50:28.322Z,10.87
2018-03-26T04:52:54.051Z,10.70
2018-03-26T04:55:19.783Z,8.80
2018-03-26T04:57:45.521Z,9.50
2018-03-26T05:00:11.261Z,8.30
2018-03-26T05:02:37.004Z,7.03
2018-03-26T05:05:02.732Z,7.40
2018-03-26T05:07:28.466Z,8.37
2018-03-26T05:09:54.200Z,8.77
2018-03-26T05:12:19.941Z,8.83
2018-03-26T05:14:45.665Z,8.30
2018-03-26T05:17:11.386Z,10.93
2018-03-26T05:19:37.114Z,9.30
2018-03-26T05:22:02.853Z,8.97
2018-03-26T05:24:28.592Z,8.93
2018-03-26T05:26:54.321Z,10.20
2018-03-26T05:29:20.055Z,9.47
2018-03-26T05:31:45.777Z,9.63
2018-03-26T05:34:11.510Z,11.67
2018-03-26T05:36:37.231Z,10.10
2018-03-26T05:39:02.974Z,10.47
2018-03-26T05:41:28.705Z,10.93
2018-03-26T05:43:54.441Z,9.80
2018-03-26T05:46:20.161Z,10.77
2018-03-26T05:48:45.902Z,10.43
2018-03-26T05:51:11.615Z,10.97
2018-03-26T05:53:37.363Z,12.63
2018-03-26T05:56:03.089Z,10.47
2018-03-26T05:58:28.807Z,12.90
2018-03-26T06:00:54.557Z,13.50
2018-03-26T06:03:20.298Z,13.53
2018-03-26T06:05:46.038Z,10.87
2018-03-26T06:08:11.750Z,10.27
2018-03-26T06:10:37.486Z,8.93
2018-03-26T06:13:03.213Z,8.93
2018-03-26T06:15:28.994Z,8.57
2018-03-26T06:17:54.709Z,7.20
2018-03-26T06:20:24.370Z,8.87
2018-03-26T06:22:50.110Z,7.93
2018-03-26T06:25:15.864Z,9.37
2018-03-26T06:27:41.601Z,8.00
2018-03-26T06:30:07.346Z,8.00
2018-03-26T06:32:33.087Z,6.70
2018-03-26T06:34:58.828Z,6.17
2018-03-26T06:40:34.384Z,5.68
2018-03-26T06:43:00.110Z,5.57
2018-03-26T06:45:25.851Z,5.80
2018-03-26T06:47:51.590Z,6.17
2018-03-26T06:50:17.323Z,6.10
2018-03-26T06:52:43.046Z,6.37
2018-03-26T06:55:08.789Z,6.90
2018-03-26T06:57:34.531Z,7.33
2018-03-26T07:00:00.259Z,7.07
2018-03-26T07:02:25.982Z,7.40
2018-03-26T07:04:51.706Z,7.33
2018-03-26T07:07:17.434Z,6.13
2018-03-26T07:09:43.157Z,6.00
2018-03-26T07:12:08.878Z,5.50
2018-03-26T07:14:34.617Z,6.40
2018-03-26T07:17:00.366Z,6.37
2018-03-26T07:19:26.093Z,6.23
2018-03-26T07:21:51.828Z,6.93
2018-03-26T07:24:17.549Z,7.27
2018-03-26T07:26:43.274Z,7.30
2018-03-26T07:29:08.989Z,7.83
2018-03-26T07:31:34.725Z,7.87
2018-03-26T07:34:00.447Z,7.10
2018-03-26T07:36:26.182Z,8.43
2018-03-26T07:38:51.936Z,7.47
2018-03-26T07:41:17.690Z,7.27
2018-03-26T07:43:43.427Z,7.00
2018-03-26T07:46:09.172Z,7.37
2018-03-26T07:48:34.923Z,7.17
2018-03-26T07:51:00.674Z,7.30
2018-03-26T07:53:26.415Z,6.33
2018-03-26T07:55:52.181Z,7.67
2018-03-26T07:58:17.941Z,6.60
2018-03-26T08:00:43.703Z,7.00
2018-03-26T08:03:09.436Z,7.00
2018-03-26T08:05:35.175Z,7.60
2018-03-26T08:08:00.963Z,7.80
2018-03-26T08:10:26.700Z,7.87
2018-03-26T08:12:52.440Z,8.27
2018-03-26T08:15:18.187Z,7.27
2018-03-26T08:17:43.959Z,6.67
2018-03-26T08:20:09.706Z,6.27
2018-03-26T08:22:35.464Z,6.47
2018-03-26T08:25:01.223Z,6.13
2018-03-26T08:27:26.994Z,6.23
2018-03-26T08:29:52.749Z,5.97
2018-03-26T08:32:18.510Z,7.13
2018-03-26T08:34:44.246Z,6.53
2018-03-26T08:37:10.009Z,7.17
2018-03-26T08:39:35.753Z,8.33
2018-03-26T08:42:01.512Z,6.23
2018-03-26T08:44:34.141Z,6.33
2018-03-26T08:46:59.889Z,7.25
2018-03-26T08:49:25.643Z,6.50
2018-03-26T08:51:51.389Z,5.53
2018-03-26T08:54:17.149Z,6.60
2018-03-26T08:56:42.894Z,6.53
2018-03-26T08:59:08.668Z,5.97
2018-03-26T09:01:34.413Z,6.33
2018-03-26T09:04:00.154Z,6.37
2018-03-26T09:06:25.902Z,6.13
2018-03-26T09:08:51.654Z,5.60
2018-03-26T09:11:17.406Z,5.73
2018-03-26T09:13:43.165Z,5.50
2018-03-26T09:16:08.892Z,7.13
2018-03-26T09:18:34.630Z,5.77
2018-03-26T09:21:00.366Z,5.70
2018-03-26T09:23:26.101Z,6.30
2018-03-26T09:25:51.868Z,6.23
2018-03-26T09:28:17.593Z,6.07
2018-03-26T09:30:43.331Z,5.40
2018-03-26T09:33:09.085Z,6.30
2018-03-26T09:35:34.819Z,6.30
2018-03-26T09:38:00.567Z,7.67
2018-03-26T09:40:26.305Z,6.47
2018-03-26T09:42:52.035Z,6.07
2018-03-26T09:45:17.775Z,6.20
2018-03-26T09:47:43.566Z,6.13
2018-03-26T09:50:09.292Z,5.90
2018-03-26T09:52:35.031Z,6.30
2018-03-26T09:55:00.803Z,6.60
2018-03-26T09:57:26.568Z,6.83
2018-03-26T09:59:52.323Z,6.40
2018-03-26T10:02:18.055Z,5.90
2018-03-26T10:04:43.795Z,6.93
2018-03-26T10:07:09.532Z,7.10
2018-03-26T10:09:35.273Z,6.77
2018-03-26T10:12:01.002Z,7.40
2018-03-26T10:14:26.735Z,6.80
2018-03-26T10:16:52.474Z,6.70
2018-03-26T10:19:18.217Z,6.23
2018-03-26T10:21:43.962Z,6.17
2018-03-26T10:24:09.697Z,6.20
2018-03-26T10:26:35.430Z,5.93
2018-03-26T10:29:01.179Z,5.53
2018-03-26T10:31:26.913Z,5.60
2018-03-26T10:33:52.663Z,5.77
2018-03-26T10:36:18.405Z,5.30
2018-03-26T10:38:44.134Z,5.47
2018-03-26T10:41:09.873Z,5.20
2018-03-26T10:43:35.597Z,5.60
2018-03-26T10:46:01.346Z,5.30
2018-03-26T10:48:27.086Z,4.50
2018-03-26T10:50:52.855Z,4.90
2018-03-26T10:53:18.582Z,4.50
2018-03-26T10:55:44.318Z,4.50
2018-03-26T10:58:10.055Z,4.40
2018-03-26T11:00:35.804Z,4.60
2018-03-26T11:03:01.541Z,5.33
2018-03-26T11:05:27.286Z,5.30
2018-03-26T11:07:53.021Z,4.60
2018-03-26T11:10:18.749Z,4.90
2018-03-26T11:12:44.485Z,4.40
2018-03-26T11:15:10.226Z,5.30
2018-03-26T11:17:35.949Z,5.30
2018-03-26T11:20:01.699Z,5.17
2018-03-26T11:22:27.429Z,4.80
2018-03-26T11:24:53.148Z,4.90
2018-03-26T11:27:18.897Z,4.93
2018-03-26T11:29:44.618Z,4.67
2018-03-26T11:32:10.354Z,4.83
2018-03-26T11:34:36.077Z,4.53
2018-03-26T11:37:01.822Z,4.63
2018-03-26T11:39:27.553Z,4.53
2018-03-26T11:41:53.309Z,4.30
2018-03-26T11:44:19.038Z,4.77
2018-03-26T11:46:44.786Z,4.80
2018-03-26T11:49:10.535Z,4.20
2018-03-26T11:51:36.281Z,4.37
2018-03-26T11:54:02.023Z,3.90
2018-03-26T11:56:27.759Z,4.03
2018-03-26T11:58:53.497Z,3.93
2018-03-26T12:01:19.246Z,4.00
2018-03-26T12:03:44.963Z,3.80
2018-03-26T12:06:10.701Z,3.03
2018-03-26T12:08:36.426Z,3.10
2018-03-26T12:11:02.155Z,3.20
2018-03-26T12:13:27.878Z,3.40
2018-03-26T12:15:53.595Z,3.00
2018-03-26T12:18:19.327Z,3.27
2018-03-26T12:20:56.421Z,3.40
2018-03-26T12:23:34.469Z,3.20
2018-03-26T12:26:00.205Z,3.47
2018-03-26T12:28:38.498Z,3.30
2018-03-26T12:31:11.110Z,4.07
2018-03-26T12:33:49.286Z,3.90
2018-03-26T12:36:15.014Z,4.25
2018-03-26T12:38:40.742Z,4.50
2018-03-26T12:41:06.482Z,4.17
2018-03-26T12:43:32.205Z,4.40
2018-03-26T12:46:10.334Z,4.27
2018-03-26T12:48:36.086Z,4.10
2018-03-26T12:54:04.762Z,4.43
2018-03-26T12:56:30.488Z,4.30
2018-03-26T12:58:56.230Z,4.77
2018-03-26T13:01:34.452Z,4.60
2018-03-26T13:04:00.204Z,4.75
2018-03-26T13:06:25.940Z,4.57
2018-03-26T13:08:51.694Z,4.83
2018-03-26T13:11:17.441Z,4.97
2018-03-26T13:13:43.194Z,4.70
2018-03-26T13:16:08.918Z,5.50
2018-03-26T13:18:34.657Z,5.77
2018-03-26T13:21:00.402Z,6.40
2018-03-26T13:23:26.143Z,6.70
2018-03-26T13:25:51.862Z,6.30
2018-03-26T13:28:17.598Z,5.67
2018-03-26T13:30:43.345Z,6.67
2018-03-26T13:33:09.086Z,6.60
2018-03-26T13:35:34.810Z,6.70
2018-03-26T13:38:00.550Z,5.70
2018-03-26T13:40:26.274Z,6.30
2018-03-26T13:42:51.997Z,5.60
2018-03-26T13:45:17.726Z,5.87
2018-03-26T13:47:43.451Z,5.03
2018-03-26T13:50:09.194Z,5.90
2018-03-26T13:52:34.961Z,5.70
2018-03-26T13:55:00.711Z,6.77
2018-03-26T13:57:26.434Z,7.53
2018-03-26T13:59:52.153Z,7.40
2018-03-26T14:02:17.870Z,7.63
2018-03-26T14:04:43.600Z,7.53
2018-03-26T14:07:09.325Z,5.80
2018-03-26T14:09:47.455Z,4.57
2018-03-26T14:12:25.605Z,4.00
2018-03-26T14:15:03.745Z,3.80
2018-03-26T14:17:41.805Z,3.33
2018-03-26T14:20:07.590Z,3.80
2018-03-26T14:22:33.337Z,3.50
2018-03-26T14:24:59.100Z,3.17
2018-03-26T14:27:24.816Z,3.53
2018-03-26T14:29:50.534Z,3.17
2018-03-26T14:32:16.266Z,3.10
2018-03-26T14:37:39.645Z,3.08
2018-03-26T14:40:05.374Z,4.00
2018-03-26T14:42:31.097Z,3.90
2018-03-26T14:44:56.822Z,3.90
2018-03-26T14:47:22.566Z,4.57
2018-03-26T14:49:48.324Z,5.10
2018-03-26T14:52:14.046Z,5.70
2018-03-26T14:54:39.773Z,6.27
2018-03-26T14:57:05.507Z,5.10
2018-03-26T14:59:31.235Z,4.90
2018-03-26T15:01:56.974Z,4.93
2018-03-26T15:04:22.695Z,4.70
2018-03-26T15:06:48.434Z,4.83
2018-03-26T15:09:14.165Z,3.97
2018-03-26T15:11:39.902Z,3.60
2018-03-26T15:14:05.653Z,3.33
2018-03-26T15:16:31.399Z,3.60
2018-03-26T15:18:57.125Z,3.50
2018-03-26T15:21:22.859Z,3.40
2018-03-26T15:23:48.593Z,3.10
2018-03-26T15:26:14.309Z,2.70
2018-03-26T15:28:40.038Z,3.20
2018-03-26T15:31:05.774Z,2.60
2018-03-26T15:33:31.501Z,3.33
2018-03-26T15:35:57.214Z,3.40
2018-03-26T15:38:22.945Z,3.40
2018-03-26T15:40:48.670Z,5.30
2018-03-26T15:43:14.410Z,3.50
2018-03-26T15:45:40.129Z,3.93
2018-03-26T15:48:05.884Z,4.40
2018-03-26T15:50:31.642Z,4.40
2018-03-26T15:52:57.414Z,5.13
2018-03-26T15:55:23.173Z,5.40
2018-03-26T15:57:48.908Z,4.50
2018-03-26T16:00:14.663Z,4.77
2018-03-26T16:02:46.430Z,5.23
2018-03-26T16:05:12.266Z,5.20
2018-03-26T16:07:38.048Z,5.10
2018-03-26T16:10:03.788Z,5.33
2018-03-26T16:12:29.522Z,5.80
2018-03-26T16:14:55.261Z,5.60
2018-03-26T16:17:21.000Z,6.80
2018-03-26T16:19:46.738Z,5.93
2018-03-26T16:22:12.458Z,6.13
2018-03-26T16:24:38.195Z,7.20
2018-03-26T16:27:03.930Z,5.60
2018-03-26T16:29:29.666Z,4.43
2018-03-26T16:31:55.426Z,3.30
2018-03-26T16:34:21.169Z,3.53
2018-03-26T16:36:46.910Z,3.53
2018-03-26T16:39:12.658Z,3.03
2018-03-26T16:41:43.331Z,3.70
2018-03-26T16:44:09.085Z,3.17
2018-03-26T16:46:34.816Z,2.60
2018-03-26T16:49:00.592Z,3.00
2018-03-26T16:51:26.347Z,3.03
2018-03-26T16:53:52.094Z,2.83
2018-03-26T16:56:17.846Z,2.90
2018-03-26T16:58:43.603Z,2.90
2018-03-26T17:01:09.352Z,3.53
2018-03-26T17:03:35.125Z,3.40
2018-03-26T17:06:00.904Z,3.30
2018-03-26T17:08:26.662Z,3.27
2018-03-26T17:10:52.493Z,3.40
2018-03-26T17:13:18.239Z,3.77
2018-03-26T17:15:43.982Z,3.73
2018-03-26T17:18:09.734Z,3.83
2018-03-26T17:20:35.480Z,4.17
2018-03-26T17:23:01.236Z,4.20
2018-03-26T17:25:27.004Z,5.10
2018-03-26T17:27:52.769Z,4.10
2018-03-26T17:30:18.513Z,4.60
2018-03-26T17:32:44.299Z,4.50
2018-03-26T17:35:10.078Z,4.70
2018-03-26T17:37:35.838Z,5.10
2018-03-26T17:40:01.582Z,4.70
2018-03-26T17:42:27.329Z,5.10
2018-03-26T17:44:53.087Z,5.17
2018-03-26T17:47:18.875Z,5.73
2018-03-26T17:49:44.617Z,6.00
2018-03-26T17:52:10.374Z,5.90
2018-03-26T17:54:36.105Z,6.03
2018-03-26T17:57:01.851Z,6.30
2018-03-26T17:59:27.571Z,6.03
2018-03-26T18:01:53.315Z,6.57
2018-03-26T18:04:19.043Z,6.23
2018-03-26T18:06:44.773Z,5.97
2018-03-26T18:09:10.509Z,6.37
2018-03-26T18:11:36.237Z,6.50
2018-03-26T18:14:01.985Z,6.33
2018-03-26T18:16:27.714Z,5.77
2018-03-26T18:18:53.445Z,7.13
2018-03-26T18:21:19.199Z,6.30
2018-03-26T18:23:44.941Z,6.47
2018-03-26T18:26:10.678Z,6.33
2018-03-26T18:28:36.413Z,6.27
2018-03-26T18:31:02.146Z,6.13
2018-03-26T18:33:27.902Z,6.80
2018-03-26T18:35:53.643Z,6.53
2018-03-26T18:38:19.394Z,6.30
2018-03-26T18:40:45.133Z,8.23
2018-03-26T18:43:10.891Z,6.83
2018-03-26T18:45:36.635Z,6.23
2018-03-26T18:48:02.426Z,6.73
2018-03-26T18:50:28.162Z,6.50
2018-03-26T18:52:53.905Z,5.57
2018-03-26T18:55:19.659Z,6.17
2018-03-26T18:57:45.399Z,5.70
2018-03-26T19:00:11.149Z,5.93
2018-03-26T19:02:36.905Z,6.77
2018-03-26T19:05:02.663Z,6.27
2018-03-26T19:07:28.426Z,6.60
2018-03-26T19:09:54.178Z,6.53
2018-03-26T19:12:19.938Z,6.70
2018-03-26T19:14:45.696Z,7.17
2018-03-26T19:17:11.446Z,8.10
2018-03-26T19:19:37.199Z,8.67
2018-03-26T19:22:02.946Z,8.23
2018-03-26T19:24:28.706Z,7.97
2018-03-26T19:26:54.449Z,8.63
2018-03-26T19:29:20.198Z,8.30
2018-03-26T19:31:45.935Z,8.20
2018-03-26T19:34:11.671Z,9.57
2018-03-26T19:36:37.429Z,8.33
2018-03-26T19:39:04.001Z,9.50
2018-03-26T19:41:29.729Z,10.38
2018-03-26T19:43:55.449Z,13.23
2018-03-26T19:46:21.188Z,12.23
2018-03-26T19:48:46.938Z,11.30
2018-03-26T19:51:12.686Z,9.80
2018-03-26T19:53:38.395Z,10.37
2018-03-26T19:56:04.130Z,8.73
2018-03-26T19:58:29.903Z,8.37
2018-03-26T20:00:55.584Z,8.70
2018-03-26T20:03:21.317Z,8.37
2018-03-26T20:05:47.073Z,7.00
2018-03-26T20:08:12.802Z,6.93
2018-03-26T20:10:38.573Z,7.70
2018-03-26T20:13:04.273Z,7.50
2018-03-26T20:15:30.015Z,7.97
2018-03-26T20:17:55.770Z,7.70
2018-03-26T20:20:21.520Z,7.87
2018-03-26T20:22:47.270Z,7.77
2018-03-26T20:25:12.998Z,7.73
2018-03-26T20:27:38.725Z,7.47
2018-03-26T20:30:04.454Z,7.30
2018-03-26T20:32:30.201Z,7.60
2018-03-26T20:34:55.925Z,7.53
2018-03-26T20:37:21.673Z,7.17
2018-03-26T20:39:47.398Z,7.37
2018-03-26T20:42:13.126Z,7.77
2018-03-26T20:44:38.853Z,7.00
2018-03-26T20:47:04.586Z,6.87
2018-03-26T20:49:30.333Z,7.40
2018-03-26T20:51:56.069Z,6.90
2018-03-26T20:54:21.815Z,6.87
2018-03-26T20:56:47.538Z,6.90
2018-03-26T20:59:13.277Z,7.90
2018-03-26T21:01:39.009Z,7.93
2018-03-26T21:04:04.814Z,7.93
2018-03-26T21:06:30.542Z,8.37
2018-03-26T21:08:56.277Z,7.33
2018-03-26T21:11:22.025Z,7.93
2018-03-26T21:13:47.766Z,7.40
2018-03-26T21:16:13.505Z,8.03
2018-03-26T21:18:39.254Z,8.37
2018-03-26T21:21:04.988Z,8.10
2018-03-26T21:23:30.714Z,7.80
2018-03-26T21:25:56.437Z,7.80
2018-03-26T21:28:22.181Z,8.50
2018-03-26T21:30:47.910Z,8.70
2018-03-26T21:33:13.638Z,7.77
2018-03-26T21:35:39.366Z,8.87
2018-03-26T21:38:05.251Z,8.73
2018-03-26T21:40:31.022Z,8.77
2018-03-26T21:42:56.853Z,9.63
2018-03-26T21:45:22.609Z,8.77
2018-03-26T21:47:48.377Z,9.37
2018-03-26T21:50:14.230Z,9.97
2018-03-26T21:52:39.981Z,10.90
2018-03-26T21:55:05.714Z,9.67
2018-03-26T21:57:31.711Z,10.30
2018-03-26T21:59:57.554Z,11.07
2018-03-26T22:02:23.334Z,10.27
2018-03-26T22:04:49.328Z,10.67
2018-03-26T22:07:15.183Z,10.55
2018-03-26T22:09:41.102Z,11.60
2018-03-26T22:12:06.879Z,11.63
2018-03-26T22:14:32.626Z,11.73
2018-03-26T22:16:58.420Z,12.23
2018-03-26T22:19:24.115Z,10.83
2018-03-26T22:21:49.845Z,11.13
2018-03-26T22:24:15.592Z,10.93
2018-03-26T22:26:41.349Z,12.03
2018-03-26T22:29:07.097Z,10.23
2018-03-26T22:31:32.818Z,9.47
2018-03-26T22:33:58.545Z,9.97
2018-03-26T22:36:24.275Z,11.20
2018-03-26T22:38:49.995Z,11.67
2018-03-26T22:41:15.736Z,11.07
2018-03-26T22:43:41.456Z,13.03
2018-03-26T22:46:07.198Z,12.70
2018-03-26T22:48:32.946Z,13.20
2018-03-26T22:50:58.698Z,12.70
2018-03-26T22:53:24.441Z,12.63
2018-03-26T22:55:50.190Z,16.60
2018-03-26T22:58:15.929Z,16.63
2018-03-26T23:00:41.661Z,18.57
2018-03-26T23:03:07.405Z,18.73
2018-03-26T23:05:33.129Z,17.13
2018-03-26T23:07:58.863Z,19.03
2018-03-26T23:10:24.609Z,17.90
2018-03-26T23:12:50.326Z,18.83
2018-03-26T23:15:16.069Z,18.97
2018-03-26T23:17:41.801Z,16.17
2018-03-26T23:20:07.556Z,15.37
2018-03-26T23:22:45.765Z,14.17
2018-03-26T23:25:11.498Z,15.02
2018-03-26T23:27:37.242Z,16.67
2018-03-26T23:30:02.979Z,17.37
2018-03-26T23:32:28.721Z,18.27
2018-03-26T23:34:54.449Z,19.43
2018-03-26T23:37:20.209Z,20.50
2018-03-26T23:39:45.939Z,22.20
2018-03-26T23:42:11.674Z,21.60
2018-03-26T23:44:37.417Z,23.27
2018-03-26T23:47:03.165Z,19.23
2018-03-26T23:49:28.904Z,20.23
2018-03-26T23:51:54.651Z,20.27
2018-03-26T23:54:20.379Z,20.63
2018-03-26T23:56:46.109Z,21.50
2018-03-26T23:59:11.825Z,20.17
